sensor_id;sensor_type;location;lat;lon;timestamp;pressure;altitude;pressure_sealevel;temperature;humidity
9277;BME280;4676;42.678;23.244;2023-02-04T00:01:44;93839.31;;;1.89;100.00
9277;BME280;4676;42.678;23.244;2023-02-04T00:04:12;93850.09;;;1.93;100.00
9277;BME280;4676;42.678;23.244;2023-02-04T00:06:39;93835.16;;;1.90;100.00
9277;BME280;4676;42.678;23.244;2023-02-04T00:09:06;93821.91;;;1.80;100.00
9277;BME280;4676;42.678;23.244;2023-02-04T00:11:32;93826.00;;;1.87;100.00
9277;BME280;4676;42.678;23.244;2023-02-04T00:14:00;93830.94;;;1.92;100.00
9277;BME280;4676;42.678;23.244;2023-02-04T00:16:27;93811.09;;;1.83;100.00
9277;BME280;4676;42.678;23.244;2023-02-04T00:18:54;93821.03;;;1.86;100.00
9277;BME280;4676;42.678;23.244;2023-02-04T00:21:21;93837.84;;;1.72;100.00
9277;BME280;4676;42.678;23.244;2023-02-04T00:23:47;93823.78;;;1.63;100.00
9277;BME280;4676;42.678;23.244;2023-02-04T00:26:15;93813.03;;;1.58;100.00
9277;BME280;4676;42.678;23.244;2023-02-04T00:28:42;93826.28;;;1.63;100.00
9277;BME280;4676;42.678;23.244;2023-02-04T00:31:10;93812.13;;;1.64;100.00
9277;BME280;4676;42.678;23.244;2023-02-04T00:33:36;93769.59;;;1.70;100.00
9277;BME280;4676;42.678;23.244;2023-02-04T00:36:04;93808.84;;;2.27;100.00
9277;BME280;4676;42.678;23.244;2023-02-04T00:38:30;93798.66;;;2.39;100.00
9277;BME280;4676;42.678;23.244;2023-02-04T00:40:57;93747.94;;;2.33;100.00
9277;BME280;4676;42.678;23.244;2023-02-04T00:43:24;93804.75;;;2.78;100.00
9277;BME280;4676;42.678;23.244;2023-02-04T00:45:50;93811.38;;;2.82;100.00
9277;BME280;4676;42.678;23.244;2023-02-04T00:48:18;93818.88;;;2.84;100.00
9277;BME280;4676;42.678;23.244;2023-02-04T00:50:45;93809.59;;;2.92;100.00
9277;BME280;4676;42.678;23.244;2023-02-04T00:53:12;93755.78;;;2.65;100.00
9277;BME280;4676;42.678;23.244;2023-02-04T00:55:39;93797.03;;;2.93;100.00
9277;BME280;4676;42.678;23.244;2023-02-04T00:58:05;93722.69;;;2.49;100.00
9277;BME280;4676;42.678;23.244;2023-02-04T01:00:32;93761.38;;;2.79;100.00
9277;BME280;4676;42.678;23.244;2023-02-04T01:02:59;93766.34;;;2.82;100.00
9277;BME280;4676;42.678;23.244;2023-02-04T01:05:27;93762.94;;;2.86;100.00
9277;BME280;4676;42.678;23.244;2023-02-04T01:07:53;93729.59;;;2.86;100.00
9277;BME280;4676;42.678;23.244;2023-02-04T01:10:20;93736.25;;;2.85;100.00
9277;BME280;4676;42.678;23.244;2023-02-04T01:12:47;93745.53;;;2.79;100.00
9277;BME280;4676;42.678;23.244;2023-02-04T01:15:14;93760.50;;;2.83;100.00
9277;BME280;4676;42.678;23.244;2023-02-04T01:17:40;93699.38;;;2.47;100.00
9277;BME280;4676;42.678;23.244;2023-02-04T01:20:08;93768.72;;;2.90;100.00
9277;BME280;4676;42.678;23.244;2023-02-04T01:22:36;93746.25;;;2.87;100.00
9277;BME280;4676;42.678;23.244;2023-02-04T01:25:04;93741.19;;;2.91;100.00
9277;BME280;4676;42.678;23.244;2023-02-04T01:27:30;93745.31;;;2.94;100.00
9277;BME280;4676;42.678;23.244;2023-02-04T01:29:57;93726.97;;;2.93;100.00
9277;BME280;4676;42.678;23.244;2023-02-04T01:32:24;93733.44;;;3.03;100.00
9277;BME280;4676;42.678;23.244;2023-02-04T01:34:51;93735.91;;;3.07;100.00
9277;BME280;4676;42.678;23.244;2023-02-04T01:37:17;93733.44;;;3.03;100.00
9277;BME280;4676;42.678;23.244;2023-02-04T01:39:46;93711.16;;;2.91;99.48
9277;BME280;4676;42.678;23.244;2023-02-04T01:42:12;93724.13;;;3.12;99.77
9277;BME280;4676;42.678;23.244;2023-02-04T01:44:39;93733.38;;;3.10;99.08
9277;BME280;4676;42.678;23.244;2023-02-04T01:47:06;93722.47;;;3.11;98.67
9277;BME280;4676;42.678;23.244;2023-02-04T01:49:33;93724.84;;;3.18;99.88
9277;BME280;4676;42.678;23.244;2023-02-04T01:52:00;93717.41;;;3.14;98.57
9277;BME280;4676;42.678;23.244;2023-02-04T01:54:27;93720.78;;;3.13;98.33
9277;BME280;4676;42.678;23.244;2023-02-04T01:56:55;93699.88;;;3.15;98.04
9277;BME280;4676;42.678;23.244;2023-02-04T01:59:22;93694.94;;;3.11;98.42
9277;BME280;4676;42.678;23.244;2023-02-04T02:01:50;93713.38;;;3.07;100.00
9277;BME280;4676;42.678;23.244;2023-02-04T02:04:19;93690.91;;;3.03;100.00
9277;BME280;4676;42.678;23.244;2023-02-04T02:06:50;93664.41;;;2.93;100.00
9277;BME280;4676;42.678;23.244;2023-02-04T02:09:18;93684.03;;;3.13;100.00
9277;BME280;4676;42.678;23.244;2023-02-04T02:11:45;93664.81;;;3.15;99.62
9277;BME280;4676;42.678;23.244;2023-02-04T02:14:14;93688.16;;;3.17;99.10
9277;BME280;4676;42.678;23.244;2023-02-04T02:16:41;93690.66;;;3.17;98.75
9277;BME280;4676;42.678;23.244;2023-02-04T02:19:09;93670.69;;;3.14;97.56
9277;BME280;4676;42.678;23.244;2023-02-04T02:21:42;93673.81;;;3.24;95.73
9277;BME280;4676;42.678;23.244;2023-02-04T02:24:26;93673.88;;;3.22;96.19
9277;BME280;4676;42.678;23.244;2023-02-04T02:26:54;93670.31;;;3.34;95.51
9277;BME280;4676;42.678;23.244;2023-02-04T02:29:22;93654.63;;;3.24;96.39
9277;BME280;4676;42.678;23.244;2023-02-04T02:31:49;93646.28;;;3.24;96.76
9277;BME280;4676;42.678;23.244;2023-02-04T02:34:16;93640.56;;;3.19;96.98
9277;BME280;4676;42.678;23.244;2023-02-04T02:36:43;93626.47;;;3.13;98.25
9277;BME280;4676;42.678;23.244;2023-02-04T02:39:10;93632.41;;;3.09;98.32
9277;BME280;4676;42.678;23.244;2023-02-04T02:41:39;93624.84;;;3.11;98.88
9277;BME280;4676;42.678;23.244;2023-02-04T02:44:06;93632.41;;;3.09;99.31
9277;BME280;4676;42.678;23.244;2023-02-04T02:46:34;93618.19;;;3.11;96.97
9277;BME280;4676;42.678;23.244;2023-02-04T02:49:01;93622.13;;;3.23;96.22
9277;BME280;4676;42.678;23.244;2023-02-04T02:51:27;93614.56;;;3.26;96.28
9277;BME280;4676;42.678;23.244;2023-02-04T02:53:56;93609.47;;;3.30;95.91
9277;BME280;4676;42.678;23.244;2023-02-04T02:56:23;93600.28;;;3.29;96.50
9277;BME280;4676;42.678;23.244;2023-02-04T02:58:51;93598.53;;;3.33;96.85
9277;BME280;4676;42.678;23.244;2023-02-04T03:01:18;93585.13;;;3.35;97.39
9277;BME280;4676;42.678;23.244;2023-02-04T03:03:47;93601.75;;;3.38;96.89
9277;BME280;4676;42.678;23.244;2023-02-04T03:06:18;93576.69;;;3.41;96.75
9277;BME280;4676;42.678;23.244;2023-02-04T03:08:47;93582.44;;;3.44;96.72
9277;BME280;4676;42.678;23.244;2023-02-04T03:11:14;93607.28;;;3.53;94.97
9277;BME280;4676;42.678;23.244;2023-02-04T03:13:41;93598.03;;;3.57;95.46
9277;BME280;4676;42.678;23.244;2023-02-04T03:16:10;93604.72;;;3.57;95.00
9277;BME280;4676;42.678;23.244;2023-02-04T03:18:37;93597.94;;;3.62;94.62
9277;BME280;4676;42.678;23.244;2023-02-04T03:21:05;93592.94;;;3.62;94.09
9277;BME280;4676;42.678;23.244;2023-02-04T03:23:32;93588.69;;;3.64;94.51
9277;BME280;4676;42.678;23.244;2023-02-04T03:26:00;93599.63;;;3.61;94.31
9277;BME280;4676;42.678;23.244;2023-02-04T03:28:27;93602.06;;;3.64;95.22
9277;BME280;4676;42.678;23.244;2023-02-04T03:30:54;93597.03;;;3.64;94.44
9277;BME280;4676;42.678;23.244;2023-02-04T03:33:23;93592.03;;;3.64;94.19
9277;BME280;4676;42.678;23.244;2023-02-04T03:35:52;93605.47;;;3.60;94.40
9277;BME280;4676;42.678;23.244;2023-02-04T03:38:19;93611.16;;;3.68;94.48
9277;BME280;4676;42.678;23.244;2023-02-04T03:40:45;93562.38;;;3.46;93.35
9277;BME280;4676;42.678;23.244;2023-02-04T03:43:12;93577.72;;;3.69;92.68
9277;BME280;4676;42.678;23.244;2023-02-04T03:45:39;93581.78;;;3.75;90.94
9277;BME280;4676;42.678;23.244;2023-02-04T03:48:06;93587.44;;;3.83;89.72
9277;BME280;4676;42.678;23.244;2023-02-04T03:50:34;93587.31;;;3.87;90.09
9277;BME280;4676;42.678;23.244;2023-02-04T03:53:00;93587.22;;;3.92;88.84
9277;BME280;4676;42.678;23.244;2023-02-04T03:55:27;93572.84;;;4.00;89.87
9277;BME280;4676;42.678;23.244;2023-02-04T03:57:56;93517.72;;;3.63;89.81
9277;BME280;4676;42.678;23.244;2023-02-04T04:00:23;93557.78;;;4.00;89.82
9277;BME280;4676;42.678;23.244;2023-02-04T04:02:49;93552.81;;;3.98;90.07
9277;BME280;4676;42.678;23.244;2023-02-04T04:05:16;93545.53;;;3.88;90.96
9277;BME280;4676;42.678;23.244;2023-02-04T04:07:44;93542.19;;;3.89;91.90
9277;BME280;4676;42.678;23.244;2023-02-04T04:10:11;93530.63;;;3.83;93.34
9277;BME280;4676;42.678;23.244;2023-02-04T04:12:38;93532.47;;;3.75;94.48
9277;BME280;4676;42.678;23.244;2023-02-04T04:15:05;93535.88;;;3.73;95.72
9277;BME280;4676;42.678;23.244;2023-02-04T04:17:32;93515.34;;;3.59;98.64
9277;BME280;4676;42.678;23.244;2023-02-04T04:19:59;93512.13;;;3.52;99.94
9277;BME280;4676;42.678;23.244;2023-02-04T04:22:26;93528.16;;;3.45;99.67
9277;BME280;4676;42.678;23.244;2023-02-04T04:24:54;93520.53;;;3.51;99.65
9277;BME280;4676;42.678;23.244;2023-02-04T04:27:20;93541.47;;;3.47;100.00
9277;BME280;4676;42.678;23.244;2023-02-04T04:29:47;93534.28;;;3.32;100.00
9277;BME280;4676;42.678;23.244;2023-02-04T04:32:14;93492.53;;;2.95;100.00
9277;BME280;4676;42.678;23.244;2023-02-04T04:34:41;93554.22;;;3.36;100.00
9277;BME280;4676;42.678;23.244;2023-02-04T04:37:08;93551.69;;;3.38;100.00
9277;BME280;4676;42.678;23.244;2023-02-04T04:39:34;93545.00;;;3.38;100.00
9277;BME280;4676;42.678;23.244;2023-02-04T04:42:02;93555.00;;;3.38;100.00
9277;BME280;4676;42.678;23.244;2023-02-04T04:44:29;93554.84;;;3.46;100.00
9277;BME280;4676;42.678;23.244;2023-02-04T04:46:56;93558.16;;;3.48;100.00
9277;BME280;4676;42.678;23.244;2023-02-04T04:49:23;93570.63;;;3.49;100.00
9277;BME280;4676;42.678;23.244;2023-02-04T04:51:50;93570.72;;;3.45;100.00
9277;BME280;4676;42.678;23.244;2023-02-04T04:54:16;93575.84;;;3.40;100.00
9277;BME280;4676;42.678;23.244;2023-02-04T04:56:43;93571.69;;;3.39;100.00
9277;BME280;4676;42.678;23.244;2023-02-04T04:59:11;93577.38;;;3.46;100.00
9277;BME280;4676;42.678;23.244;2023-02-04T05:01:38;93580.03;;;3.40;100.00
9277;BME280;4676;42.678;23.244;2023-02-04T05:04:05;93566.72;;;3.38;100.00
9277;BME280;4676;42.678;23.244;2023-02-04T05:06:31;93565.25;;;3.29;100.00
9277;BME280;4676;42.678;23.244;2023-02-04T05:08:58;93566.97;;;3.26;100.00
9277;BME280;4676;42.678;23.244;2023-02-04T05:11:25;93573.00;;;3.17;100.00
9277;BME280;4676;42.678;23.244;2023-02-04T05:13:52;93570.69;;;3.07;100.00
9277;BME280;4676;42.678;23.244;2023-02-04T05:16:20;93586.47;;;3.12;100.00
9277;BME280;4676;42.678;23.244;2023-02-04T05:18:46;93584.91;;;3.06;100.00
9277;BME280;4676;42.678;23.244;2023-02-04T05:21:13;93595.03;;;3.00;100.00
9277;BME280;4676;42.678;23.244;2023-02-04T05:23:40;93609.19;;;3.03;100.00
9277;BME280;4676;42.678;23.244;2023-02-04T05:26:06;93597.78;;;2.88;100.00
9277;BME280;4676;42.678;23.244;2023-02-04T05:28:33;93601.91;;;2.89;100.00
9277;BME280;4676;42.678;23.244;2023-02-04T05:31:00;93622.88;;;2.85;100.00
9277;BME280;4676;42.678;23.244;2023-02-04T05:33:28;93595.63;;;2.70;100.00
9277;BME280;4676;42.678;23.244;2023-02-04T05:35:54;93635.50;;;2.77;100.00
9277;BME280;4676;42.678;23.244;2023-02-04T05:38:21;93641.63;;;2.61;100.00
9277;BME280;4676;42.678;23.244;2023-02-04T05:40:48;93646.69;;;2.58;100.00
9277;BME280;4676;42.678;23.244;2023-02-04T05:43:15;93659.19;;;2.58;100.00
9277;BME280;4676;42.678;23.244;2023-02-04T05:45:41;93663.34;;;2.59;100.00
9277;BME280;4676;42.678;23.244;2023-02-04T05:48:08;93649.28;;;2.50;100.00
9277;BME280;4676;42.678;23.244;2023-02-04T05:50:36;93655.94;;;2.53;100.00
9277;BME280;4676;42.678;23.244;2023-02-04T05:53:03;93651.00;;;2.48;100.00
9277;BME280;4676;42.678;23.244;2023-02-04T05:55:29;93643.34;;;2.58;100.00
9277;BME280;4676;42.678;23.244;2023-02-04T05:57:56;93629.16;;;2.60;100.00
9277;BME280;4676;42.678;23.244;2023-02-04T06:00:23;93622.44;;;2.62;100.00
9277;BME280;4676;42.678;23.244;2023-02-04T06:02:49;93599.16;;;2.58;100.00
9277;BME280;4676;42.678;23.244;2023-02-04T06:05:16;93604.78;;;2.69;100.00
9277;BME280;4676;42.678;23.244;2023-02-04T06:07:44;93604.16;;;2.58;100.00
9277;BME280;4676;42.678;23.244;2023-02-04T06:10:11;93601.72;;;2.55;100.00
9277;BME280;4676;42.678;23.244;2023-02-04T06:12:38;93621.53;;;2.66;100.00
9277;BME280;4676;42.678;23.244;2023-02-04T06:15:06;93615.56;;;2.73;100.00
9277;BME280;4676;42.678;23.244;2023-02-04T06:17:33;93594.91;;;2.62;100.00
9277;BME280;4676;42.678;23.244;2023-02-04T06:19:59;93632.91;;;2.82;100.00
9277;BME280;4676;42.678;23.244;2023-02-04T06:22:26;93637.69;;;2.94;100.00
9277;BME280;4676;42.678;23.244;2023-02-04T06:24:54;93646.81;;;2.96;100.00
9277;BME280;4676;42.678;23.244;2023-02-04T06:27:21;93641.78;;;2.98;100.00
9277;BME280;4676;42.678;23.244;2023-02-04T06:29:48;93632.69;;;2.94;100.00
9277;BME280;4676;42.678;23.244;2023-02-04T06:32:15;93636.84;;;2.95;100.00
9277;BME280;4676;42.678;23.244;2023-02-04T06:34:42;93630.97;;;2.96;100.00
9277;BME280;4676;42.678;23.244;2023-02-04T06:37:09;93634.31;;;2.96;100.00
9277;BME280;4676;42.678;23.244;2023-02-04T06:39:36;93648.22;;;3.11;100.00
9277;BME280;4676;42.678;23.244;2023-02-04T06:42:04;93651.47;;;3.15;100.00
9277;BME280;4676;42.678;23.244;2023-02-04T06:44:31;93648.91;;;3.18;100.00
9277;BME280;4676;42.678;23.244;2023-02-04T06:46:57;93650.44;;;3.26;100.00
9277;BME280;4676;42.678;23.244;2023-02-04T06:49:24;93651.22;;;3.28;100.00
9277;BME280;4676;42.678;23.244;2023-02-04T06:51:51;93640.38;;;3.28;100.00
9277;BME280;4676;42.678;23.244;2023-02-04T06:54:19;93642.91;;;3.26;100.00
9277;BME280;4676;42.678;23.244;2023-02-04T06:56:46;93640.28;;;3.32;100.00
9277;BME280;4676;42.678;23.244;2023-02-04T06:59:14;93642.66;;;3.38;100.00
9277;BME280;4676;42.678;23.244;2023-02-04T07:01:41;93631.03;;;3.36;100.00
9277;BME280;4676;42.678;23.244;2023-02-04T07:04:08;93635.00;;;3.46;100.00
9277;BME280;4676;42.678;23.244;2023-02-04T07:06:34;93638.19;;;3.52;100.00
9277;BME280;4676;42.678;23.244;2023-02-04T07:09:01;93640.63;;;3.57;100.00
9277;BME280;4676;42.678;23.244;2023-02-04T07:11:28;93640.53;;;3.62;100.00
9277;BME280;4676;42.678;23.244;2023-02-04T07:13:55;93650.47;;;3.65;100.00
9277;BME280;4676;42.678;23.244;2023-02-04T07:16:23;93646.19;;;3.70;100.00
9277;BME280;4676;42.678;23.244;2023-02-04T07:18:49;93652.91;;;3.69;100.00
9277;BME280;4676;42.678;23.244;2023-02-04T07:21:16;93642.88;;;3.69;100.00
9277;BME280;4676;42.678;23.244;2023-02-04T07:23:43;93637.03;;;3.69;100.00
9277;BME280;4676;42.678;23.244;2023-02-04T07:26:09;93631.09;;;3.73;100.00
9277;BME280;4676;42.678;23.244;2023-02-04T07:28:36;93635.25;;;3.74;100.00
9277;BME280;4676;42.678;23.244;2023-02-04T07:31:05;93635.97;;;3.79;100.00
9277;BME280;4676;42.678;23.244;2023-02-04T07:33:33;93634.31;;;3.79;100.00
9277;BME280;4676;42.678;23.244;2023-02-04T07:36:00;93629.13;;;3.87;100.00
9277;BME280;4676;42.678;23.244;2023-02-04T07:38:26;93626.38;;;3.97;100.00
9277;BME280;4676;42.678;23.244;2023-02-04T07:40:53;93596.47;;;3.90;100.00
9277;BME280;4676;42.678;23.244;2023-02-04T07:43:20;93603.53;;;4.10;100.00
9277;BME280;4676;42.678;23.244;2023-02-04T07:45:47;93620.66;;;4.26;100.00
9277;BME280;4676;42.678;23.244;2023-02-04T07:48:13;93613.81;;;4.33;100.00
9277;BME280;4676;42.678;23.244;2023-02-04T07:50:41;93614.34;;;4.45;100.00
9277;BME280;4676;42.678;23.244;2023-02-04T07:53:08;93618.38;;;4.52;100.00
9277;BME280;4676;42.678;23.244;2023-02-04T07:55:35;93612.50;;;4.53;98.34
9277;BME280;4676;42.678;23.244;2023-02-04T07:58:02;93611.50;;;4.59;97.75
9277;BME280;4676;42.678;23.244;2023-02-04T08:00:29;93607.25;;;4.61;95.56
9277;BME280;4676;42.678;23.244;2023-02-04T08:02:55;93617.81;;;4.40;94.04
9277;BME280;4676;42.678;23.244;2023-02-04T08:05:22;93613.78;;;4.34;96.29
9277;BME280;4676;42.678;23.244;2023-02-04T08:07:50;93617.06;;;4.36;95.63
9277;BME280;4676;42.678;23.244;2023-02-04T08:10:17;93623.06;;;4.31;96.07
9277;BME280;4676;42.678;23.244;2023-02-04T08:12:45;93621.50;;;4.27;96.04
9277;BME280;4676;42.678;23.244;2023-02-04T08:15:12;93619.91;;;4.23;97.09
9277;BME280;4676;42.678;23.244;2023-02-04T08:17:39;93618.41;;;4.16;96.45
9277;BME280;4676;42.678;23.244;2023-02-04T08:20:06;93580.53;;;3.92;96.89
9277;BME280;4676;42.678;23.244;2023-02-04T08:22:33;93621.72;;;4.18;96.48
9277;BME280;4676;42.678;23.244;2023-02-04T08:25:02;93582.75;;;4.05;97.53
9277;BME280;4676;42.678;23.244;2023-02-04T08:27:29;93616.47;;;4.27;97.29
9277;BME280;4676;42.678;23.244;2023-02-04T08:29:56;93619.78;;;4.29;96.75
9277;BME280;4676;42.678;23.244;2023-02-04T08:32:23;93612.44;;;4.21;97.62
9277;BME280;4676;42.678;23.244;2023-02-04T08:34:51;93615.91;;;4.16;100.00
9277;BME280;4676;42.678;23.244;2023-02-04T08:37:17;93618.34;;;4.19;100.00
9277;BME280;4676;42.678;23.244;2023-02-04T08:39:44;93612.72;;;4.09;100.00
9277;BME280;4676;42.678;23.244;2023-02-04T08:42:13;93606.00;;;4.11;100.00
9277;BME280;4676;42.678;23.244;2023-02-04T08:44:39;93602.50;;;4.18;100.00
9277;BME280;4676;42.678;23.244;2023-02-04T08:47:06;93596.81;;;4.12;100.00
9277;BME280;4676;42.678;23.244;2023-02-04T08:49:34;93613.19;;;4.25;100.00
9277;BME280;4676;42.678;23.244;2023-02-04T08:52:01;93610.03;;;4.17;100.00
9277;BME280;4676;42.678;23.244;2023-02-04T08:54:29;93609.34;;;4.12;100.00
9277;BME280;4676;42.678;23.244;2023-02-04T08:56:56;93612.00;;;4.04;100.00
9277;BME280;4676;42.678;23.244;2023-02-04T08:59:24;93601.94;;;4.06;100.00
9277;BME280;4676;42.678;23.244;2023-02-04T09:01:51;93594.63;;;3.96;100.00
9277;BME280;4676;42.678;23.244;2023-02-04T09:04:18;93600.34;;;4.03;100.00
9277;BME280;4676;42.678;23.244;2023-02-04T09:06:45;93597.28;;;3.90;100.00
9277;BME280;4676;42.678;23.244;2023-02-04T09:09:12;93583.28;;;3.82;100.00
9277;BME280;4676;42.678;23.244;2023-02-04T09:11:39;93590.56;;;3.92;100.00
9277;BME280;4676;42.678;23.244;2023-02-04T09:14:06;93594.03;;;3.87;100.00
9277;BME280;4676;42.678;23.244;2023-02-04T09:16:34;93584.97;;;3.81;100.00
9277;BME280;4676;42.678;23.244;2023-02-04T09:19:01;93580.56;;;3.91;100.00
9277;BME280;4676;42.678;23.244;2023-02-04T09:21:28;93592.09;;;3.98;100.00
9277;BME280;4676;42.678;23.244;2023-02-04T09:23:55;93586.94;;;4.04;100.00
9277;BME280;4676;42.678;23.244;2023-02-04T09:26:22;93588.47;;;4.10;100.00
9277;BME280;4676;42.678;23.244;2023-02-04T09:28:49;93590.28;;;4.05;100.00
9277;BME280;4676;42.678;23.244;2023-02-04T09:31:15;93596.91;;;4.07;100.00
9277;BME280;4676;42.678;23.244;2023-02-04T09:33:44;93587.69;;;4.08;100.00
9277;BME280;4676;42.678;23.244;2023-02-04T09:36:11;93584.97;;;4.15;100.00
9277;BME280;4676;42.678;23.244;2023-02-04T09:38:38;93572.34;;;4.20;100.00
9277;BME280;4676;42.678;23.244;2023-02-04T09:41:07;93579.97;;;4.15;100.00
9277;BME280;4676;42.678;23.244;2023-02-04T09:43:37;93566.91;;;4.04;100.00
9277;BME280;4676;42.678;23.244;2023-02-04T09:46:07;93587.78;;;4.05;100.00
9277;BME280;4676;42.678;23.244;2023-02-04T09:48:34;93546.44;;;3.85;100.00
9277;BME280;4676;42.678;23.244;2023-02-04T09:51:05;93565.00;;;4.12;100.00
9277;BME280;4676;42.678;23.244;2023-02-04T09:53:33;93560.03;;;4.11;100.00
9277;BME280;4676;42.678;23.244;2023-02-04T09:56:01;93561.81;;;4.06;100.00
9277;BME280;4676;42.678;23.244;2023-02-04T09:58:30;93561.22;;;3.96;100.00
9277;BME280;4676;42.678;23.244;2023-02-04T10:01:05;93551.44;;;3.85;100.00
9277;BME280;4676;42.678;23.244;2023-02-04T10:03:34;93543.94;;;3.85;100.00
9277;BME280;4676;42.678;23.244;2023-02-04T10:06:01;93539.84;;;3.81;100.00
9277;BME280;4676;42.678;23.244;2023-02-04T10:08:32;93544.66;;;3.90;100.00
9277;BME280;4676;42.678;23.244;2023-02-04T10:10:59;93538.66;;;3.96;100.00
9277;BME280;4676;42.678;23.244;2023-02-04T10:13:30;93537.00;;;3.96;100.00
9277;BME280;4676;42.678;23.244;2023-02-04T10:15:58;93540.69;;;3.82;100.00
9277;BME280;4676;42.678;23.244;2023-02-04T10:18:27;93540.50;;;3.89;100.00
9277;BME280;4676;42.678;23.244;2023-02-04T10:20:56;93537.75;;;3.98;100.00
9277;BME280;4676;42.678;23.244;2023-02-04T10:23:26;93540.19;;;4.01;100.00
9277;BME280;4676;42.678;23.244;2023-02-04T10:25:54;93538.50;;;4.02;100.00
9277;BME280;4676;42.678;23.244;2023-02-04T10:28:32;93546.56;;;4.15;100.00
9277;BME280;4676;42.678;23.244;2023-02-04T10:30:58;93539.13;;;4.12;100.00
9277;BME280;4676;42.678;23.244;2023-02-04T10:33:25;93538.56;;;4.00;100.00
9277;BME280;4676;42.678;23.244;2023-02-04T10:35:54;93527.13;;;3.90;100.00
9277;BME280;4676;42.678;23.244;2023-02-04T10:38:21;93529.00;;;3.81;100.00
9277;BME280;4676;42.678;23.244;2023-02-04T10:41:00;93527.28;;;3.83;100.00
9277;BME280;4676;42.678;23.244;2023-02-04T10:43:27;93528.31;;;3.76;100.00
9277;BME280;4676;42.678;23.244;2023-02-04T10:45:56;93533.34;;;3.74;100.00
9277;BME280;4676;42.678;23.244;2023-02-04T10:48:24;93525.03;;;3.72;100.00
9277;BME280;4676;42.678;23.244;2023-02-04T10:50:51;93517.44;;;3.75;100.00
9277;BME280;4676;42.678;23.244;2023-02-04T10:53:20;93501.75;;;3.69;100.00
9277;BME280;4676;42.678;23.244;2023-02-04T10:56:11;93513.94;;;3.82;100.00
9277;BME280;4676;42.678;23.244;2023-02-04T10:58:40;93505.34;;;3.92;100.00
9277;BME280;4676;42.678;23.244;2023-02-04T11:01:09;93436.44;;;3.41;100.00
9277;BME280;4676;42.678;23.244;2023-02-04T11:03:37;93497.16;;;3.84;100.00
9277;BME280;4676;42.678;23.244;2023-02-04T11:06:08;93497.06;;;3.89;100.00
9277;BME280;4676;42.678;23.244;2023-02-04T11:08:36;93492.72;;;3.95;100.00
9277;BME280;4676;42.678;23.244;2023-02-04T11:11:07;93492.22;;;3.81;100.00
9277;BME280;4676;42.678;23.244;2023-02-04T11:13:44;93486.78;;;3.99;100.00
9277;BME280;4676;42.678;23.244;2023-02-04T11:16:23;93493.38;;;4.03;100.00
9277;BME280;4676;42.678;23.244;2023-02-04T11:18:53;93493.19;;;4.10;100.00
9277;BME280;4676;42.678;23.244;2023-02-04T11:21:23;93492.50;;;4.05;100.00
9277;BME280;4676;42.678;23.244;2023-02-04T11:24:02;93489.69;;;4.17;100.00
9277;BME280;4676;42.678;23.244;2023-02-04T11:26:35;93491.16;;;4.25;100.00
9277;BME280;4676;42.678;23.244;2023-02-04T11:29:24;93482.25;;;4.12;100.00
9277;BME280;4676;42.678;23.244;2023-02-04T11:32:00;93492.03;;;4.23;100.00
9277;BME280;4676;42.678;23.244;2023-02-04T11:34:30;93488.56;;;4.27;100.00
9277;BME280;4676;42.678;23.244;2023-02-04T11:37:05;93488.56;;;4.27;100.00
9277;BME280;4676;42.678;23.244;2023-02-04T11:39:38;93492.28;;;4.44;100.00
9277;BME280;4676;42.678;23.244;2023-02-04T11:42:17;93491.19;;;4.54;100.00
9277;BME280;4676;42.678;23.244;2023-02-04T11:44:48;93500.47;;;4.51;100.00
9277;BME280;4676;42.678;23.244;2023-02-04T11:47:15;93496.38;;;4.48;100.00
9277;BME280;4676;42.678;23.244;2023-02-04T11:49:42;93499.72;;;4.49;100.00
9277;BME280;4676;42.678;23.244;2023-02-04T11:52:13;93493.38;;;4.36;100.00
9277;BME280;4676;42.678;23.244;2023-02-04T11:54:39;93490.53;;;4.48;100.00
9277;BME280;4676;42.678;23.244;2023-02-04T11:57:11;93485.63;;;4.43;100.00
9277;BME280;4676;42.678;23.244;2023-02-04T11:59:38;93486.25;;;4.51;100.00
9277;BME280;4676;42.678;23.244;2023-02-04T12:02:12;93483.16;;;4.42;100.00
9277;BME280;4676;42.678;23.244;2023-02-04T12:04:49;93488.28;;;4.39;100.00
9277;BME280;4676;42.678;23.244;2023-02-04T12:07:20;93485.31;;;4.23;100.00
9277;BME280;4676;42.678;23.244;2023-02-04T12:09:49;93485.56;;;4.14;100.00
9277;BME280;4676;42.678;23.244;2023-02-04T12:12:24;93483.81;;;4.18;100.00
9277;BME280;4676;42.678;23.244;2023-02-04T12:15:00;93481.53;;;4.09;100.00
9277;BME280;4676;42.678;23.244;2023-02-04T12:17:28;93487.38;;;4.09;100.00
9277;BME280;4676;42.678;23.244;2023-02-04T12:19:55;93475.63;;;4.11;100.00
9277;BME280;4676;42.678;23.244;2023-02-04T12:22:21;93472.38;;;4.08;100.00
9277;BME280;4676;42.678;23.244;2023-02-04T12:24:48;93472.50;;;4.01;100.00
9277;BME280;4676;42.678;23.244;2023-02-04T12:27:16;93463.13;;;4.10;100.00
9277;BME280;4676;42.678;23.244;2023-02-04T12:29:44;93462.84;;;4.20;100.00
9277;BME280;4676;42.678;23.244;2023-02-04T12:32:11;93425.91;;;3.94;100.00
9277;BME280;4676;42.678;23.244;2023-02-04T12:34:38;93472.69;;;4.28;100.00
9277;BME280;4676;42.678;23.244;2023-02-04T12:37:04;93468.50;;;4.27;100.00
9277;BME280;4676;42.678;23.244;2023-02-04T12:39:31;93470.91;;;4.31;100.00
9277;BME280;4676;42.678;23.244;2023-02-04T12:41:58;93475.00;;;4.35;100.00
9277;BME280;4676;42.678;23.244;2023-02-04T12:44:25;93480.19;;;4.28;100.00
9277;BME280;4676;42.678;23.244;2023-02-04T12:46:53;93477.59;;;4.31;100.00
9277;BME280;4676;42.678;23.244;2023-02-04T12:49:20;93468.50;;;4.28;100.00
9277;BME280;4676;42.678;23.244;2023-02-04T12:51:49;93478.38;;;4.33;100.00
9277;BME280;4676;42.678;23.244;2023-02-04T12:54:15;93453.53;;;4.25;100.00
9277;BME280;4676;42.678;23.244;2023-02-04T12:56:42;93471.47;;;4.41;100.00
9277;BME280;4676;42.678;23.244;2023-02-04T12:59:09;93474.34;;;4.29;100.00
9277;BME280;4676;42.678;23.244;2023-02-04T13:01:35;93471.03;;;4.27;100.00
9277;BME280;4676;42.678;23.244;2023-02-04T13:04:04;93471.34;;;4.15;100.00
9277;BME280;4676;42.678;23.244;2023-02-04T13:06:30;93485.56;;;4.14;100.00
9277;BME280;4676;42.678;23.244;2023-02-04T13:08:57;93480.03;;;4.01;100.00
9277;BME280;4676;42.678;23.244;2023-02-04T13:11:24;93460.94;;;3.97;100.00
9277;BME280;4676;42.678;23.244;2023-02-04T13:13:50;93482.03;;;3.89;100.00
9277;BME280;4676;42.678;23.244;2023-02-04T13:16:17;93483.94;;;3.79;100.00